This is the latest recevied weather packets stored in our database for station/object K5EAA-13. If no packets are shown the sender has not sent any weather packets the latest 10 day(s).
| Time | Temp. | Humidity | Pressure | Rain* | Wind** | Luminosity | Snow |
|---|---|---|---|---|---|---|---|
| 1787873192 | 36.11° C | 36% | 1013.1 hPa | 0 mm | - | 170 W/m² | - |
| 1787872891 | 36.11° C | 36% | 1013.1 hPa | 0 mm | - | 170 W/m² | - |
| 1787872586 | 36.11° C | 35% | 1013 hPa | 0 mm | - | 188 W/m² | - |
| 1787872281 | 36.11° C | 37% | 1012.9 hPa | 0 mm | - | 203 W/m² | - |
| 1787871981 | 36.11° C | 37% | 1012.9 hPa | 0 mm | - | 221 W/m² | - |
| 1787871677 | 36.11° C | 36% | 1013.1 hPa | 0 mm | - | 232 W/m² | - |
| 1787871372 | 36.67° C | 36% | 1013.2 hPa | 0 mm | - | 237 W/m² | - |
| 1787871067 | 36.67° C | 36% | 1012.9 hPa | 0 mm | - | 261 W/m² | - |
| 1787870767 | 36.67° C | 35% | 1012.9 hPa | 0 mm | - | 279 W/m² | - |
| 1787870467 | 36.67° C | 35% | 1013.1 hPa | 0 mm | - | 179 W/m² | - |
| 1787870162 | 36.67° C | 35% | 1013.1 hPa | 0 mm | - | 192 W/m² | - |
| 1787869861 | 36.67° C | 34% | 1013.1 hPa | 0 mm | - | 322 W/m² | - |
| 1787869560 | 36.67° C | 35% | 1013.1 hPa | 0 mm | - | 340 W/m² | - |
| 1787869256 | 36.67° C | 34% | 1012.9 hPa | 0 mm | - | 339 W/m² | - |
| 1787868954 | 36.67° C | 34% | 1013 hPa | 0 mm | - | 359 W/m² | - |
| 1787868649 | 36.67° C | 33% | 1013 hPa | 0 mm | - | 367 W/m² | - |
| 1787868347 | 37.22° C | 34% | 1013.1 hPa | 0 mm | - | 393 W/m² | - |
| 1787868043 | 36.67° C | 34% | 1013.3 hPa | 0 mm | - | 397 W/m² | - |
| 1787867738 | 36.67° C | 36% | 1013.3 hPa | 0 mm | - | 429 W/m² | - |
| 1787867433 | 36.67° C | 36% | 1013.4 hPa | 0 mm | - | 380 W/m² | - |
| 1787867128 | 36.67° C | 36% | 1013.3 hPa | 0 mm | - | 477 W/m² | - |
| 1787866823 | 36.11° C | 36% | 1013.3 hPa | 0 mm | - | 477 W/m² | - |
| 1787866518 | 36.11° C | 36% | 1013.6 hPa | 0 mm | - | 108 W/m² | - |
| 1787866217 | 36.67° C | 37% | 1013.7 hPa | 0 mm | - | 210 W/m² | - |
| 1787865912 | 36.67° C | 36% | 1013.6 hPa | 0 mm | - | 500 W/m² | - |
* Rain latest hour (hover to see other rain measurements)
** Current wind speed in m/s (hover to see current wind gust speed)